1884 Hurricane NOT_NAMED (1884259N14338)


IBTrACS version v04r00. Visit IBTrACS website for data access.
Please direct all questions to the IBTrACS Q and A forum

Storm track - Intensity - Wind Radii - Intensity Data - Source Data - All data

Summary Information

Storm ID 1884259N14338
Start Sep 14 12Z
Max Intensity 85 kt (Sep 23 12Z), 967 mb (Sep 25 12Z)
End Sep 26 18Z
ATCF IDs
Track status Best track data.

Storm track plot

Map of storm track

Intensity plots

Map of storm track

Radial wind information

No radial wind information for this storm


Position and Intensity Table

BASIN ISO_TIME_________ NATURE LAT LON MLC WIND MLC PRES
degrees north degrees east kts mb
NA 1884-09-14 12:00:00 TS 13.50 -22.50 25
NA 15:00:00 TS 13.64 -23.00 27
NA 18:00:00 TS 13.80 -23.50 30
NA 21:00:00 TS 13.99 -24.00 32
NA 1884-09-15 00:00:00 TS 14.20 -24.50 35
NA 03:00:00 TS 14.40 -25.00 37
NA 06:00:00 TS 14.60 -25.50 40
NA 09:00:00 TS 14.81 -25.99 42
NA 12:00:00 TS 15.00 -26.50 45
NA 15:00:00 TS 15.17 -27.09 47
NA 18:00:00 TS 15.30 -27.70 50
NA 21:00:00 TS 15.40 -28.26 50
NA 1884-09-16 00:00:00 TS 15.50 -28.80 50
NA 03:00:00 TS 15.64 -29.35 50
NA 06:00:00 TS 15.80 -29.90 50
NA 09:00:00 TS 15.93 -30.46 50
NA 12:00:00 TS 16.10 -31.00 50
NA 15:00:00 TS 16.33 -31.51 50
NA 18:00:00 TS 16.60 -32.00 50
NA 21:00:00 TS 16.85 -32.50 50
NA 1884-09-17 00:00:00 TS 17.10 -33.00 50
NA 03:00:00 TS 17.36 -33.50 50
NA 06:00:00 TS 17.60 -34.00 50
NA 09:00:00 TS 17.79 -34.51 50
NA 12:00:00 TS 18.00 -35.00 50
NA 15:00:00 TS 18.29 -35.46 50
NA 18:00:00 TS 18.60 -35.90 50
NA 21:00:00 TS 18.85 -36.36 50
NA 1884-09-18 00:00:00 TS 19.10 -36.80 50
NA 03:00:00 TS 19.40 -37.20 50
NA 06:00:00 TS 19.70 -37.60 50
NA 09:00:00 TS 19.96 -38.04 50
NA 12:00:00 TS 20.20 -38.50 50
NA 15:00:00 TS 20.46 -38.95 50
NA 18:00:00 TS 20.70 -39.40 50
NA 21:00:00 TS 20.90 -39.85 50
NA 1884-09-19 00:00:00 TS 21.10 -40.30 50
NA 03:00:00 TS 21.35 -40.76 50
NA 06:00:00 TS 21.60 -41.20 50
NA 09:00:00 TS 21.78 -41.62 50
NA 12:00:00 TS 22.00 -42.00 50
NA 15:00:00 TS 22.33 -42.36 52
NA 18:00:00 TS 22.70 -42.70 55
NA 21:00:00 TS 23.01 -43.01 55
NA 1884-09-20 00:00:00 TS 23.30 -43.30 55
NA 03:00:00 TS 23.60 -43.60 55
NA 06:00:00 TS 23.90 -43.90 55
NA 09:00:00 TS 24.19 -44.18 55
NA 12:00:00 TS 24.50 -44.50 55
NA 15:00:00 TS 24.85 -44.93 55
NA 18:00:00 TS 25.20 -45.40 55
NA 21:00:00 TS 25.51 -45.85 55
NA 1884-09-21 00:00:00 TS 25.80 -46.30 55
NA 03:00:00 TS 26.10 -46.76 57
NA 06:00:00 TS 26.40 -47.20 60
NA 09:00:00 TS 26.68 -47.62 60
NA 12:00:00 TS 27.00 -48.00 60
NA 15:00:00 TS 27.43 -48.37 60
NA 18:00:00 TS 27.90 -48.70 60
NA 21:00:00 TS 28.35 -49.01 60
NA 1884-09-22 00:00:00 TS 28.80 -49.30 60
NA 03:00:00 TS 29.26 -49.60 60
NA 06:00:00 TS 29.70 -49.90 60
NA 09:00:00 TS 30.10 -50.23 62
NA 12:00:00 TS 30.50 -50.50 65
NA 15:00:00 TS 30.94 -50.64 67
NA 18:00:00 TS 31.40 -50.70 70
NA 21:00:00 TS 31.81 -50.77 72
NA 1884-09-23 00:00:00 TS 32.30 -50.80 75
NA 03:00:00 TS 32.97 -50.77 77
NA 06:00:00 TS 33.70 -50.70 80
NA 09:00:00 TS 34.31 -50.70 82
NA 12:00:00 TS 35.00 -50.50 85
NA 15:00:00 TS 35.91 -49.85 85
NA 18:00:00 TS 36.90 -49.00 85
NA 21:00:00 TS 37.86 -48.21 85
NA 1884-09-24 00:00:00 TS 38.80 -47.50 85
NA 03:00:00 TS 39.70 -47.00 85
NA 06:00:00 TS 40.60 -46.50 85
NA 09:00:00 TS 41.62 -45.86 85
NA 12:00:00 TS 42.50 -45.00 85
NA 15:00:00 TS 43.03 -43.82 80
NA 18:00:00 ET 43.40 -42.50 75
NA 21:00:00 ET 43.85 -41.21 72
NA 1884-09-25 00:00:00 ET 44.30 -40.00 70
NA 03:00:00 ET 44.74 -39.00 70
NA 06:00:00 ET 45.20 -38.00 70
NA 09:00:00 ET 45.70 -36.82 70
NA 12:00:00 ET 46.20 -35.50 70 967
NA 15:00:00 ET 46.65 -34.03 70
NA 18:00:00 ET 47.10 -32.50 70
NA 21:00:00 ET 47.59 -31.02 67
NA 1884-09-26 00:00:00 ET 48.10 -29.50 65
NA 03:00:00 ET 48.61 -27.86 62
NA 06:00:00 ET 49.10 -26.20 60
NA 09:00:00 ET 49.55 -24.61 60
NA 12:00:00 ET 50.00 -23.00 60
NA 15:00:00 ET 50.49 -21.29 60
NA 18:00:00 ET 51.00 -19.50 60

Source Information

Agency Information
USA
TOKYO
CMA
HKO
NEWDELHI
REUNION
BOM
NADI
WELLINGTON
DS824
TD9636
TD9635
NEUMANN
MLC

All available IBTrACS Data

SEASON BASIN SUBBASIN ISO_TIME_________ NATURE LAT LON DIST2LAND LANDFALL IFLAG USA SSHS MLC LAT MLC LON MLC CLASS MLC WIND MLC PRES STORM SPEED STORM DIR
Year degrees north degrees east km km 1 degrees north degrees east kts mb kts degrees
1884 NA NA 1884-09-14 12:00:00 TS 13.50 -22.50 555 555 _____________O -1 13.50 -22.50 TD 25 10 286
1884 NA NA 15:00:00 TS 13.64 -23.00 605 605 _____________P -1 13.64 -23.00 TD 27 10 287
1884 NA NA 18:00:00 TS 13.80 -23.50 654 654 _____________O -1 13.80 -23.50 TD 30 10 290
1884 NA NA 21:00:00 TS 13.99 -24.00 704 704 _____________P -1 13.99 -24.00 TD 32 11 292
1884 NA NA 1884-09-15 00:00:00 TS 14.20 -24.50 756 756 _____________O -1 14.20 -24.50 TS 35 11 293
1884 NA NA 03:00:00 TS 14.40 -25.00 808 808 _____________P -1 14.40 -25.00 TS 37 11 292
1884 NA NA 06:00:00 TS 14.60 -25.50 861 861 _____________O -1 14.60 -25.50 TS 40 10 293
1884 NA NA 09:00:00 TS 14.81 -25.99 914 914 _____________P -1 14.81 -25.99 TS 42 10 292
1884 NA NA 12:00:00 TS 15.00 -26.50 968 968 _____________O -1 15.00 -26.50 TS 45 11 288
1884 NA NA 15:00:00 TS 15.17 -27.09 1033 1033 _____________P -1 15.17 -27.09 TS 47 12 285
1884 NA NA 18:00:00 TS 15.30 -27.70 1097 1097 _____________O -1 15.30 -27.70 TS 50 11 282
1884 NA NA 21:00:00 TS 15.40 -28.26 1162 1162 _____________P -1 15.40 -28.26 TS 50 11 281
1884 NA NA 1884-09-16 00:00:00 TS 15.50 -28.80 1216 1216 _____________O -1 15.50 -28.80 TS 50 11 283
1884 NA NA 03:00:00 TS 15.64 -29.35 1281 1281 _____________P -1 15.64 -29.35 TS 50 11 286
1884 NA NA 06:00:00 TS 15.80 -29.90 1336 1336 _____________O -1 15.80 -29.90 TS 50 11 285
1884 NA NA 09:00:00 TS 15.93 -30.46 1401 1401 _____________P -1 15.93 -30.46 TS 50 11 286
1884 NA NA 12:00:00 TS 16.10 -31.00 1455 1455 _____________O -1 16.10 -31.00 TS 50 11 292
1884 NA NA 15:00:00 TS 16.33 -31.51 1511 1511 _____________P -1 16.33 -31.51 TS 50 11 298
1884 NA NA 18:00:00 TS 16.60 -32.00 1567 1567 _____________O -1 16.60 -32.00 TS 50 11 298
1884 NA NA 21:00:00 TS 16.85 -32.50 1622 1622 _____________P -1 16.85 -32.50 TS 50 11 298
1884 NA NA 1884-09-17 00:00:00 TS 17.10 -33.00 1679 1679 _____________O -1 17.10 -33.00 TS 50 11 298
1884 NA NA 03:00:00 TS 17.36 -33.50 1736 1736 _____________P -1 17.36 -33.50 TS 50 11 298
1884 NA NA 06:00:00 TS 17.60 -34.00 1791 1791 _____________O -1 17.60 -34.00 TS 50 11 294
1884 NA NA 09:00:00 TS 17.79 -34.51 1847 1847 _____________P -1 17.79 -34.51 TS 50 10 293
1884 NA NA 12:00:00 TS 18.00 -35.00 1902 1902 _____________O -1 18.00 -35.00 TS 50 10 299
1884 NA NA 15:00:00 TS 18.29 -35.46 1947 1947 _____________P -1 18.29 -35.46 TS 50 10 305
1884 NA NA 18:00:00 TS 18.60 -35.90 1982 1982 _____________O -1 18.60 -35.90 TS 50 10 303
1884 NA NA 21:00:00 TS 18.85 -36.36 2030 2028 _____________P -1 18.85 -36.36 TS 50 10 300
1884 NA NA 1884-09-18 00:00:00 TS 19.10 -36.80 2066 2066 _____________O -1 19.10 -36.80 TS 50 10 305
1884 NA NA 03:00:00 TS 19.40 -37.20 2103 2103 _____________P -1 19.40 -37.20 TS 50 10 308
1884 NA NA 06:00:00 TS 19.70 -37.60 2140 2140 _____________O -1 19.70 -37.60 TS 50 10 305
1884 NA NA 09:00:00 TS 19.96 -38.04 2178 2178 _____________P -1 19.96 -38.04 TS 50 10 301
1884 NA NA 12:00:00 TS 20.20 -38.50 2227 2227 _____________O -1 20.20 -38.50 TS 50 10 300
1884 NA NA 15:00:00 TS 20.46 -38.95 2249 2239 _____________P -1 20.46 -38.95 TS 50 10 301
1884 NA NA 18:00:00 TS 20.70 -39.40 2242 2233 _____________O -1 20.70 -39.40 TS 50 10 298
1884 NA NA 21:00:00 TS 20.90 -39.85 2229 2218 _____________P -1 20.90 -39.85 TS 50 9 295
1884 NA NA 1884-09-19 00:00:00 TS 21.10 -40.30 2220 2210 _____________O -1 21.10 -40.30 TS 50 10 298
1884 NA NA 03:00:00 TS 21.35 -40.76 2206 2206 _____________P -1 21.35 -40.76 TS 50 10 301
1884 NA NA 06:00:00 TS 21.60 -41.20 2209 2200 _____________O -1 21.60 -41.20 TS 50 9 299
1884 NA NA 09:00:00 TS 21.78 -41.62 2203 2196 _____________P -1 21.78 -41.62 TS 50 8 298
1884 NA NA 12:00:00 TS 22.00 -42.00 2199 2194 _____________O -1 22.00 -42.00 TS 50 9 308
1884 NA NA 15:00:00 TS 22.33 -42.36 2206 2206 _____________P -1 22.33 -42.36 TS 52 10 317
1884 NA NA 18:00:00 TS 22.70 -42.70 2229 2229 _____________O -1 22.70 -42.70 TS 55 9 319
1884 NA NA 21:00:00 TS 23.01 -43.01 2243 2243 _____________P -1 23.01 -43.01 TS 55 8 317
1884 NA NA 1884-09-20 00:00:00 TS 23.30 -43.30 2257 2257 _____________O -1 23.30 -43.30 TS 55 8 317
1884 NA NA 03:00:00 TS 23.60 -43.60 2273 2273 _____________P -1 23.60 -43.60 TS 55 8 318
1884 NA NA 06:00:00 TS 23.90 -43.90 2289 2289 _____________O -1 23.90 -43.90 TS 55 8 318
1884 NA NA 09:00:00 TS 24.19 -44.18 2306 2284 _____________P -1 24.19 -44.18 TS 55 8 318
1884 NA NA 12:00:00 TS 24.50 -44.50 2284 2252 _____________O -1 24.50 -44.50 TS 55 10 314
1884 NA NA 15:00:00 TS 24.85 -44.93 2255 2216 _____________P -1 24.85 -44.93 TS 55 11 311
1884 NA NA 18:00:00 TS 25.20 -45.40 2216 2183 _____________O -1 25.20 -45.40 TS 55 11 308
1884 NA NA 21:00:00 TS 25.51 -45.85 2177 2149 _____________P -1 25.51 -45.85 TS 55 10 306
1884 NA NA 1884-09-21 00:00:00 TS 25.80 -46.30 2149 2119 _____________O -1 25.80 -46.30 TS 55 10 306
1884 NA NA 03:00:00 TS 26.10 -46.76 2113 2088 _____________P -1 26.10 -46.76 TS 57 10 307
1884 NA NA 06:00:00 TS 26.40 -47.20 2088 2060 _____________O -1 26.40 -47.20 TS 60 10 307
1884 NA NA 09:00:00 TS 26.68 -47.62 2064 2041 _____________P -1 26.68 -47.62 TS 60 9 310
1884 NA NA 12:00:00 TS 27.00 -48.00 2041 2028 _____________O -1 27.00 -48.00 TS 60 10 318
1884 NA NA 15:00:00 TS 27.43 -48.37 2024 2018 _____________P -1 27.43 -48.37 TS 60 11 325
1884 NA NA 18:00:00 TS 27.90 -48.70 2023 2017 _____________O -1 27.90 -48.70 TS 60 11 328
1884 NA NA 21:00:00 TS 28.35 -49.01 2019 2010 _____________P -1 28.35 -49.01 TS 60 10 330
1884 NA NA 1884-09-22 00:00:00 TS 28.80 -49.30 2010 1962 _____________O -1 28.80 -49.30 TS 60 10 330
1884 NA NA 03:00:00 TS 29.26 -49.60 1951 1903 _____________P -1 29.26 -49.60 TS 60 10 330
1884 NA NA 06:00:00 TS 29.70 -49.90 1903 1855 _____________O -1 29.70 -49.90 TS 60 10 327
1884 NA NA 09:00:00 TS 30.10 -50.23 1855 1807 _____________P -1 30.10 -50.23 TS 62 10 327
1884 NA NA 12:00:00 TS 30.50 -50.50 1807 1761 _____________O -1 30.50 -50.50 HU 65 9 337
1884 NA NA 15:00:00 TS 30.94 -50.64 1761 1705 _____________P -1 30.94 -50.64 HU 67 9 349
1884 NA NA 18:00:00 TS 31.40 -50.70 1705 1660 _____________O -1 31.40 -50.70 HU 70 9 353
1884 NA NA 21:00:00 TS 31.81 -50.77 1660 1604 _____________P -1 31.81 -50.77 HU 72 9 355
1884 NA NA 1884-09-23 00:00:00 TS 32.30 -50.80 1604 1538 _____________O -1 32.30 -50.80 HU 75 12 359
1884 NA NA 03:00:00 TS 32.97 -50.77 1527 1450 _____________P -1 32.97 -50.77 HU 77 14 3
1884 NA NA 06:00:00 TS 33.70 -50.70 1450 1384 _____________O -1 33.70 -50.70 HU 80 13 2
1884 NA NA 09:00:00 TS 34.31 -50.70 1384 1310 _____________P -1 34.31 -50.70 HU 82 13 7
1884 NA NA 12:00:00 TS 35.00 -50.50 1310 1221 _____________O -1 35.00 -50.50 HU 85 17 24
1884 NA NA 15:00:00 TS 35.91 -49.85 1223 1141 _____________P -1 35.91 -49.85 HU 85 23 33
1884 NA NA 18:00:00 TS 36.90 -49.00 1133 1057 _____________O -1 36.90 -49.00 HU 85 24 34
1884 NA NA 21:00:00 TS 37.86 -48.21 1050 989 _____________P -1 37.86 -48.21 HU 85 22 32
1884 NA NA 1884-09-24 00:00:00 TS 38.80 -47.50 983 925 _____________O -1 38.80 -47.50 HU 85 21 27
1884 NA NA 03:00:00 TS 39.70 -47.00 915 860 _____________P -1 39.70 -47.00 HU 85 20 23
1884 NA NA 06:00:00 TS 40.60 -46.50 856 803 _____________O -1 40.60 -46.50 HU 85 21 24
1884 NA NA 09:00:00 TS 41.62 -45.86 803 784 _____________P -1 41.62 -45.86 HU 85 22 31
1884 NA NA 12:00:00 TS 42.50 -45.00 790 789 _____________O -1 42.50 -45.00 HU 85 21 47
1884 NA NA 15:00:00 TS 43.03 -43.82 835 835 _____________P -1 43.03 -43.82 HU 80 20 64
1884 NA NA 18:00:00 ET 43.40 -42.50 902 902 _____________O -1 43.40 -42.50 EX 75 21 67
1884 NA NA 21:00:00 ET 43.85 -41.21 972 972 _____________P -1 43.85 -41.21 EX 72 20 63
1884 NA NA 1884-09-25 00:00:00 ET 44.30 -40.00 1032 1032 _____________O -1 44.30 -40.00 EX 70 18 61
1884 NA NA 03:00:00 ET 44.74 -39.00 1087 1087 _____________P -1 44.74 -39.00 EX 70 17 58
1884 NA NA 06:00:00 ET 45.20 -38.00 1142 1142 _____________O -1 45.20 -38.00 EX 70 18 58
1884 NA NA 09:00:00 ET 45.70 -36.82 1216 1216 _____________P -1 45.70 -36.82 EX 70 20 60
1884 NA NA 12:00:00 ET 46.20 -35.50 1300 1300 _____________O -1 46.20 -35.50 EX 70 967 21 64
1884 NA NA 15:00:00 ET 46.65 -34.03 1403 1401 _____________P -1 46.65 -34.03 EX 70 22 66
1884 NA NA 18:00:00 ET 47.10 -32.50 1505 1505 _____________O -1 47.10 -32.50 EX 70 23 65
1884 NA NA 21:00:00 ET 47.59 -31.02 1539 1421 _____________P -1 47.59 -31.02 EX 67 22 64
1884 NA NA 1884-09-26 00:00:00 ET 48.10 -29.50 1414 1291 _____________O -1 48.10 -29.50 EX 65 23 64
1884 NA NA 03:00:00 ET 48.61 -27.86 1284 1155 _____________P -1 48.61 -27.86 EX 62 24 65
1884 NA NA 06:00:00 ET 49.10 -26.20 1149 1032 _____________O -1 49.10 -26.20 EX 60 23 66
1884 NA NA 09:00:00 ET 49.55 -24.61 1025 905 _____________P -1 49.55 -24.61 EX 60 23 67
1884 NA NA 12:00:00 ET 50.00 -23.00 898 773 _____________O -1 50.00 -23.00 EX 60 23 66
1884 NA NA 15:00:00 ET 50.49 -21.29 767 637 _____________P -1 50.49 -21.29 EX 60 24 66
1884 NA NA 18:00:00 ET 51.00 -19.50 630 _____________O -1 51.00 -19.50 EX 60 25 66